createdAt,value
2023-01-26T00:01:25.095Z,16.67
2023-01-26T00:03:51.918Z,17.40
2023-01-26T00:06:20.547Z,16.77
2023-01-26T00:08:59.126Z,16.90
2023-01-26T00:11:27.854Z,16.63
2023-01-26T00:13:56.271Z,16.83
2023-01-26T00:16:23.163Z,17.30
2023-01-26T00:18:50.482Z,16.47
2023-01-26T00:21:24.729Z,16.80
2023-01-26T00:23:52.607Z,16.57
2023-01-26T00:26:24.697Z,17.70
2023-01-26T00:28:52.374Z,17.63
2023-01-26T00:31:24.850Z,16.00
2023-01-26T00:33:53.174Z,16.57
2023-01-26T00:36:20.253Z,17.60
2023-01-26T00:38:47.119Z,16.83
2023-01-26T00:41:34.436Z,16.50
2023-01-26T00:44:01.724Z,18.00
2023-01-26T00:46:29.297Z,18.17
2023-01-26T00:48:56.306Z,17.27
2023-01-26T00:51:23.293Z,17.20
2023-01-26T00:53:50.009Z,17.20
2023-01-26T00:56:16.716Z,18.57
2023-01-26T00:58:45.462Z,17.43
2023-01-26T01:01:12.345Z,17.40
2023-01-26T01:03:39.083Z,17.67
2023-01-26T01:06:05.883Z,17.87
2023-01-26T01:08:32.586Z,16.67
2023-01-26T01:11:11.109Z,17.87
2023-01-26T01:13:38.802Z,16.93
2023-01-26T01:16:11.303Z,16.73
2023-01-26T01:18:38.343Z,16.90
2023-01-26T01:21:09.359Z,17.17
2023-01-26T01:23:36.330Z,17.43
2023-01-26T01:26:04.484Z,18.63
2023-01-26T01:28:32.283Z,17.23
2023-01-26T01:30:59.294Z,16.50
2023-01-26T01:33:26.160Z,18.03
2023-01-26T01:35:57.270Z,17.10
2023-01-26T01:38:24.062Z,19.87
2023-01-26T01:40:51.272Z,18.33
2023-01-26T01:43:18.209Z,20.27
2023-01-26T01:45:47.297Z,20.00
2023-01-26T01:48:43.627Z,19.00
2023-01-26T01:51:36.483Z,19.33
2023-01-26T01:54:08.470Z,20.00
2023-01-26T01:56:37.215Z,18.93
2023-01-26T01:59:07.351Z,20.47
2023-01-26T02:01:34.384Z,20.00
2023-01-26T02:04:04.620Z,19.70
2023-01-26T02:06:35.035Z,21.47
2023-01-26T02:09:03.390Z,20.50
2023-01-26T02:11:36.262Z,20.87
2023-01-26T02:14:25.243Z,19.83
2023-01-26T02:16:52.067Z,19.90
2023-01-26T02:19:38.890Z,19.90
2023-01-26T02:22:16.703Z,21.30
2023-01-26T02:24:44.076Z,19.77
2023-01-26T02:27:11.044Z,21.47
2023-01-26T02:29:38.194Z,19.80
2023-01-26T02:32:05.089Z,19.67
2023-01-26T02:34:31.878Z,18.87
2023-01-26T02:36:59.910Z,19.00
2023-01-26T02:39:47.486Z,18.37
2023-01-26T02:42:32.712Z,17.93
2023-01-26T02:44:59.570Z,17.93
2023-01-26T02:47:26.287Z,17.47
2023-01-26T02:49:53.026Z,16.10
2023-01-26T02:52:22.843Z,16.17
2023-01-26T02:55:08.241Z,16.77
2023-01-26T02:57:35.382Z,16.37
2023-01-26T03:00:03.693Z,15.73
2023-01-26T03:02:30.491Z,15.03
2023-01-26T03:04:57.252Z,16.40
2023-01-26T03:07:26.746Z,15.97
2023-01-26T03:09:53.508Z,16.37
2023-01-26T03:12:20.207Z,17.23
2023-01-26T03:15:06.881Z,16.53
2023-01-26T03:17:33.570Z,17.13
2023-01-26T03:20:19.028Z,16.97
2023-01-26T03:23:04.299Z,15.80
2023-01-26T03:25:49.816Z,16.07
2023-01-26T03:28:22.214Z,16.23
2023-01-26T03:30:49.957Z,15.77
2023-01-26T03:33:17.675Z,15.47
2023-01-26T03:35:44.924Z,17.67
2023-01-26T03:38:12.125Z,17.80
2023-01-26T03:40:58.033Z,18.60
2023-01-26T03:43:43.601Z,17.70
2023-01-26T03:46:29.220Z,16.37
2023-01-26T03:49:14.610Z,17.37
2023-01-26T03:52:00.092Z,18.07
2023-01-26T03:54:45.643Z,17.33
2023-01-26T03:57:12.541Z,17.40
2023-01-26T03:59:39.363Z,18.03
2023-01-26T04:02:26.492Z,16.93
2023-01-26T04:05:12.176Z,16.70
2023-01-26T04:07:57.857Z,17.40
2023-01-26T04:10:25.344Z,17.67
2023-01-26T04:13:10.790Z,17.40
2023-01-26T04:15:56.761Z,16.40
2023-01-26T04:18:42.293Z,17.30
2023-01-26T04:21:28.226Z,16.80
2023-01-26T04:23:58.754Z,17.20
2023-01-26T04:26:35.734Z,17.93
2023-01-26T04:29:13.161Z,16.53
2023-01-26T04:31:40.761Z,17.13
2023-01-26T04:34:12.323Z,18.13
2023-01-26T04:36:39.957Z,18.83
2023-01-26T04:39:07.055Z,16.70
2023-01-26T04:41:34.240Z,16.87
2023-01-26T04:44:01.538Z,15.57
2023-01-26T04:46:28.366Z,15.77
2023-01-26T04:48:55.132Z,14.73
2023-01-26T04:51:22.689Z,13.03
2023-01-26T04:53:50.073Z,14.90
2023-01-26T04:56:26.009Z,19.08
2023-01-26T04:58:53.733Z,15.50
2023-01-26T05:01:20.874Z,15.47
2023-01-26T05:03:47.962Z,17.17
2023-01-26T05:06:14.923Z,15.93
2023-01-26T05:08:41.750Z,16.77
2023-01-26T05:11:08.689Z,15.97
2023-01-26T05:13:36.055Z,16.40
2023-01-26T05:16:03.945Z,16.33
2023-01-26T05:18:30.912Z,15.30
2023-01-26T05:20:58.234Z,15.33
2023-01-26T05:23:25.361Z,15.47
2023-01-26T05:25:52.184Z,14.43
2023-01-26T05:28:19.105Z,14.43
2023-01-26T05:30:46.862Z,15.60
2023-01-26T05:33:13.730Z,15.27
2023-01-26T05:35:40.477Z,13.67
2023-01-26T05:38:07.197Z,15.23
2023-01-26T05:40:33.940Z,14.83
2023-01-26T05:43:00.894Z,14.47
2023-01-26T05:45:27.876Z,14.60
2023-01-26T05:47:54.708Z,14.77
2023-01-26T05:50:21.666Z,13.77
2023-01-26T05:52:49.869Z,14.13
2023-01-26T05:55:16.721Z,14.87
2023-01-26T05:57:43.504Z,14.77
2023-01-26T06:00:11.790Z,14.17
2023-01-26T06:02:38.977Z,14.07
2023-01-26T06:05:06.489Z,14.40
2023-01-26T06:07:33.264Z,15.30
2023-01-26T06:10:00.178Z,15.73
2023-01-26T06:12:31.546Z,13.67
2023-01-26T06:14:58.877Z,15.00
2023-01-26T06:17:25.696Z,15.87
2023-01-26T06:19:52.429Z,14.57
2023-01-26T06:22:19.575Z,14.07
2023-01-26T06:24:47.175Z,13.70
2023-01-26T06:27:15.891Z,16.37
2023-01-26T06:29:43.335Z,14.90
2023-01-26T06:32:16.207Z,14.50
2023-01-26T06:34:43.044Z,14.80
2023-01-26T06:37:10.943Z,15.47
2023-01-26T06:39:37.794Z,14.53
2023-01-26T06:42:04.871Z,14.80
2023-01-26T06:44:31.578Z,16.07
2023-01-26T06:46:58.275Z,16.17
2023-01-26T06:49:25.015Z,16.23
2023-01-26T06:52:03.158Z,15.53
2023-01-26T06:54:29.909Z,15.03
2023-01-26T06:56:56.700Z,15.13
2023-01-26T06:59:23.447Z,15.03
2023-01-26T07:01:50.187Z,14.87
2023-01-26T07:04:18.412Z,14.93
2023-01-26T07:06:45.366Z,16.27
2023-01-26T07:09:12.264Z,16.17
2023-01-26T07:11:39.089Z,16.40
2023-01-26T07:14:06.070Z,16.37
2023-01-26T07:16:33.951Z,16.17
2023-01-26T07:19:01.296Z,16.57
2023-01-26T07:21:28.136Z,16.23
2023-01-26T07:23:56.143Z,15.33
2023-01-26T07:26:23.088Z,15.03
2023-01-26T07:28:49.879Z,14.93
2023-01-26T07:31:16.796Z,14.60
2023-01-26T07:33:43.635Z,14.13
2023-01-26T07:36:11.133Z,14.30
2023-01-26T07:38:38.359Z,13.83
2023-01-26T07:41:07.809Z,13.43
2023-01-26T07:43:36.387Z,14.03
2023-01-26T07:46:03.384Z,13.83
2023-01-26T07:48:30.792Z,13.00
2023-01-26T07:51:04.844Z,12.67
2023-01-26T07:53:34.181Z,13.97
2023-01-26T07:56:08.050Z,14.40
2023-01-26T07:58:36.193Z,14.23
2023-01-26T08:01:21.997Z,15.03
2023-01-26T08:03:51.203Z,14.27
2023-01-26T08:06:18.585Z,13.27
2023-01-26T08:08:50.934Z,14.43
2023-01-26T08:11:19.408Z,13.87
2023-01-26T08:13:46.105Z,13.37
2023-01-26T08:16:13.201Z,14.27
2023-01-26T08:18:41.990Z,13.40
2023-01-26T08:21:10.179Z,13.37
2023-01-26T08:23:37.184Z,13.43
2023-01-26T08:26:06.139Z,13.40
2023-01-26T08:28:33.791Z,14.10
2023-01-26T08:31:20.946Z,13.43
2023-01-26T08:33:53.343Z,14.07
2023-01-26T08:36:22.534Z,13.97
2023-01-26T08:38:50.220Z,14.07
2023-01-26T08:41:16.953Z,13.63
2023-01-26T08:43:43.694Z,14.17
2023-01-26T08:46:10.857Z,43.37
2023-01-26T08:48:38.622Z,18.40
2023-01-26T08:51:07.042Z,17.37
2023-01-26T08:53:37.418Z,13.97
2023-01-26T08:56:10.252Z,14.00
2023-01-26T08:58:37.410Z,13.37
2023-01-26T09:01:10.477Z,14.47
2023-01-26T09:03:37.809Z,15.83
2023-01-26T09:06:06.510Z,16.27
2023-01-26T09:08:33.215Z,15.53
2023-01-26T09:11:00.499Z,14.70
2023-01-26T09:13:27.413Z,14.97
2023-01-26T09:15:54.311Z,13.53
2023-01-26T09:18:21.125Z,13.60
2023-01-26T09:20:47.899Z,12.47
2023-01-26T09:23:16.908Z,13.53
2023-01-26T09:25:43.741Z,12.73
2023-01-26T09:28:10.645Z,11.50
2023-01-26T09:30:37.407Z,12.40
2023-01-26T09:33:06.040Z,12.57
2023-01-26T09:35:33.151Z,13.70
2023-01-26T09:37:59.968Z,13.13
2023-01-26T09:40:43.759Z,12.20
2023-01-26T09:43:41.744Z,11.80
2023-01-26T09:46:40.523Z,10.80
2023-01-26T09:49:13.918Z,12.53
2023-01-26T09:51:43.565Z,13.20
2023-01-26T09:54:26.815Z,13.27
2023-01-26T09:56:55.842Z,11.87
2023-01-26T09:59:28.624Z,13.07
2023-01-26T10:02:13.412Z,12.83
2023-01-26T10:04:44.114Z,13.83
2023-01-26T10:07:13.055Z,12.87
2023-01-26T10:09:43.356Z,14.27
2023-01-26T10:12:34.415Z,14.27
2023-01-26T10:15:19.877Z,13.17
2023-01-26T10:17:49.480Z,13.87
2023-01-26T10:20:37.376Z,17.53
2023-01-26T10:23:24.611Z,18.20
2023-01-26T10:25:54.186Z,16.57
2023-01-26T10:28:28.765Z,16.00
2023-01-26T10:30:55.970Z,15.33
2023-01-26T10:33:33.349Z,14.17
2023-01-26T10:36:05.216Z,13.63
2023-01-26T10:38:37.870Z,14.67
2023-01-26T10:41:20.078Z,14.87
2023-01-26T10:43:56.191Z,14.67
2023-01-26T10:46:38.049Z,14.50
2023-01-26T10:49:14.623Z,15.27
2023-01-26T10:51:45.213Z,14.13
2023-01-26T10:54:24.101Z,14.33
2023-01-26T10:56:57.241Z,15.90
2023-01-26T10:59:50.514Z,16.43
2023-01-26T11:02:20.175Z,16.43
2023-01-26T11:05:08.695Z,15.20
2023-01-26T11:07:38.656Z,15.27
2023-01-26T11:10:28.201Z,14.70
2023-01-26T11:13:21.452Z,15.70
2023-01-26T11:15:52.361Z,15.47
2023-01-26T11:18:55.671Z,15.40
2023-01-26T11:21:45.385Z,14.93
2023-01-26T11:24:39.856Z,15.07
2023-01-26T11:27:13.449Z,15.67
2023-01-26T11:30:01.988Z,15.77
2023-01-26T11:32:38.292Z,15.60
2023-01-26T11:35:26.397Z,14.73
2023-01-26T11:38:33.367Z,15.67
2023-01-26T11:41:20.168Z,15.70
2023-01-26T11:44:03.232Z,15.20
2023-01-26T11:46:52.398Z,14.70
2023-01-26T11:49:34.641Z,16.33
2023-01-26T11:52:10.139Z,16.47
2023-01-26T11:54:43.040Z,15.73
2023-01-26T11:57:15.799Z,15.20
2023-01-26T11:59:57.276Z,16.93
2023-01-26T12:02:42.081Z,15.70
2023-01-26T12:05:31.459Z,17.30
2023-01-26T12:08:06.099Z,17.33
2023-01-26T12:11:25.228Z,18.57
2023-01-26T12:14:22.288Z,18.20
2023-01-26T12:17:18.033Z,17.10
2023-01-26T12:19:45.255Z,16.40
2023-01-26T12:22:19.512Z,16.03
2023-01-26T12:25:20.847Z,16.50
2023-01-26T12:27:48.713Z,14.97
2023-01-26T12:30:41.462Z,16.80
2023-01-26T12:33:10.817Z,16.40
2023-01-26T12:35:58.393Z,18.97
2023-01-26T12:38:44.984Z,17.07
2023-01-26T12:41:29.795Z,16.37
2023-01-26T12:43:56.444Z,18.43
2023-01-26T12:46:27.022Z,15.00
2023-01-26T12:49:01.784Z,16.20
2023-01-26T12:51:37.182Z,15.37
2023-01-26T12:54:18.352Z,14.97
2023-01-26T12:56:50.464Z,15.93
2023-01-26T12:59:47.872Z,11.33
2023-01-26T13:02:29.291Z,11.97
2023-01-26T13:04:59.295Z,11.87
2023-01-26T13:07:33.876Z,11.23
2023-01-26T13:10:16.230Z,10.53
2023-01-26T13:12:55.932Z,10.67
2023-01-26T13:15:26.033Z,9.87
2023-01-26T13:18:04.156Z,11.13
2023-01-26T13:20:40.108Z,10.50
2023-01-26T13:23:40.297Z,10.67
2023-01-26T13:26:33.584Z,10.40
2023-01-26T13:29:25.178Z,10.20
2023-01-26T13:31:52.776Z,9.80
2023-01-26T13:34:32.240Z,10.63
2023-01-26T13:37:08.155Z,10.53
2023-01-26T13:39:37.052Z,9.77
2023-01-26T13:42:16.517Z,10.60
2023-01-26T13:44:51.120Z,10.00
2023-01-26T13:47:36.080Z,9.67
2023-01-26T13:50:33.966Z,10.33
2023-01-26T13:53:01.066Z,9.77
2023-01-26T13:55:31.477Z,8.97
2023-01-26T13:58:30.704Z,12.97
2023-01-26T14:01:06.432Z,9.60
2023-01-26T14:03:33.727Z,10.60
2023-01-26T14:06:02.219Z,11.27
2023-01-26T14:08:31.009Z,10.60
2023-01-26T14:10:59.423Z,9.50
2023-01-26T14:13:31.456Z,8.77
2023-01-26T14:16:01.065Z,7.63
2023-01-26T14:18:28.703Z,9.33
2023-01-26T14:21:14.307Z,7.90
2023-01-26T14:23:41.037Z,7.73
2023-01-26T14:26:30.614Z,7.67
2023-01-26T14:29:00.366Z,7.03
2023-01-26T14:31:29.328Z,7.57
2023-01-26T14:33:58.852Z,7.63
2023-01-26T14:36:33.147Z,7.77
2023-01-26T14:39:01.165Z,7.60
2023-01-26T14:41:31.786Z,7.20
2023-01-26T14:44:04.171Z,7.67
2023-01-26T14:46:36.730Z,6.90
2023-01-26T14:49:17.891Z,7.80
2023-01-26T14:51:46.657Z,7.00
2023-01-26T14:54:25.805Z,6.97
2023-01-26T14:56:52.760Z,6.60
2023-01-26T14:59:25.611Z,6.97
2023-01-26T15:02:14.573Z,8.10
2023-01-26T15:04:45.807Z,7.53
2023-01-26T15:07:31.046Z,8.70
2023-01-26T15:09:57.771Z,12.57
2023-01-26T15:12:24.709Z,7.70
2023-01-26T15:14:57.029Z,6.73
2023-01-26T15:17:38.705Z,6.73
2023-01-26T15:20:23.773Z,6.70
2023-01-26T15:22:52.684Z,7.87
2023-01-26T15:25:27.929Z,7.63
2023-01-26T15:27:59.586Z,7.53
2023-01-26T15:30:29.155Z,6.93
2023-01-26T15:32:56.067Z,7.30
2023-01-26T15:35:26.857Z,9.37
2023-01-26T15:38:03.616Z,7.37
2023-01-26T15:40:30.951Z,7.37
2023-01-26T15:43:15.011Z,7.43
2023-01-26T15:45:54.283Z,7.97
2023-01-26T15:48:22.049Z,7.40
2023-01-26T15:50:48.918Z,7.37
2023-01-26T15:53:19.965Z,8.37
2023-01-26T15:55:52.992Z,8.80
2023-01-26T15:58:20.153Z,8.67
2023-01-26T16:00:47.463Z,8.87
2023-01-26T16:03:19.098Z,8.63
2023-01-26T16:05:50.159Z,7.33
2023-01-26T16:08:18.580Z,7.53
2023-01-26T16:10:46.518Z,6.93
2023-01-26T16:13:17.905Z,6.93
2023-01-26T16:15:46.571Z,7.43
2023-01-26T16:18:13.464Z,6.87
2023-01-26T16:20:42.359Z,8.27
2023-01-26T16:23:21.084Z,7.53
2023-01-26T16:25:48.415Z,9.27
2023-01-26T16:28:15.542Z,10.53
2023-01-26T16:30:43.963Z,11.87
2023-01-26T16:33:16.087Z,12.10
2023-01-26T16:35:43.226Z,11.90
2023-01-26T16:38:13.169Z,12.83
2023-01-26T16:40:45.480Z,14.90
2023-01-26T16:43:22.034Z,14.50
2023-01-26T16:45:50.478Z,11.27
2023-01-26T16:48:17.654Z,9.80
2023-01-26T16:50:45.393Z,10.03
2023-01-26T16:53:33.080Z,8.90
2023-01-26T16:55:59.821Z,7.80
2023-01-26T16:58:27.020Z,8.67
2023-01-26T17:00:55.322Z,8.73
2023-01-26T17:03:22.476Z,8.47
2023-01-26T17:05:50.595Z,8.30
2023-01-26T17:08:17.468Z,9.03
2023-01-26T17:11:00.606Z,9.40
2023-01-26T17:13:28.204Z,10.30
2023-01-26T17:15:56.559Z,10.87
2023-01-26T17:18:23.485Z,15.93
2023-01-26T17:20:50.205Z,14.60
2023-01-26T17:23:16.917Z,13.07
2023-01-26T17:25:43.660Z,14.87
2023-01-26T17:28:10.461Z,14.47
2023-01-26T17:30:37.732Z,15.90
2023-01-26T17:33:04.455Z,15.00
2023-01-26T17:35:31.192Z,17.10
2023-01-26T17:37:57.918Z,16.00
2023-01-26T17:40:24.609Z,16.47
2023-01-26T17:42:51.358Z,15.03
2023-01-26T17:45:18.083Z,17.43
2023-01-26T17:47:44.909Z,16.27
2023-01-26T17:50:11.647Z,17.73
2023-01-26T17:52:38.425Z,18.60
2023-01-26T17:55:06.312Z,14.33
2023-01-26T17:57:33.926Z,14.93
2023-01-26T18:00:00.705Z,12.73
2023-01-26T18:02:27.515Z,12.10
2023-01-26T18:04:54.292Z,11.80
2023-01-26T18:07:21.104Z,11.97
2023-01-26T18:09:47.956Z,10.60
2023-01-26T18:12:14.674Z,10.77
2023-01-26T18:14:41.929Z,11.47
2023-01-26T18:17:08.684Z,11.10
2023-01-26T18:19:35.467Z,11.77
2023-01-26T18:22:02.291Z,11.17
2023-01-26T18:24:29.064Z,10.70
2023-01-26T18:26:55.804Z,10.63
2023-01-26T18:29:22.521Z,11.17
2023-01-26T18:31:49.424Z,11.37
2023-01-26T18:34:16.258Z,11.13
2023-01-26T18:36:42.967Z,11.83
2023-01-26T18:39:13.732Z,10.90
2023-01-26T18:41:40.884Z,11.30
2023-01-26T18:44:08.342Z,12.67
2023-01-26T18:46:35.190Z,12.27
2023-01-26T18:49:03.501Z,13.17
2023-01-26T18:51:32.693Z,12.60
2023-01-26T18:53:59.911Z,12.27
2023-01-26T18:56:27.033Z,13.33
2023-01-26T18:58:54.130Z,12.47
2023-01-26T19:01:22.170Z,11.57
2023-01-26T19:03:54.852Z,11.53
2023-01-26T19:06:23.796Z,11.67
2023-01-26T19:08:58.478Z,13.83
2023-01-26T19:11:30.910Z,13.27
2023-01-26T19:13:58.729Z,12.70
2023-01-26T19:16:25.944Z,13.23
2023-01-26T19:18:55.369Z,13.00
2023-01-26T19:21:24.616Z,13.97
2023-01-26T19:23:53.243Z,12.97
2023-01-26T19:26:23.010Z,12.67
2023-01-26T19:28:50.986Z,12.70
2023-01-26T19:31:19.798Z,12.67
2023-01-26T19:33:51.099Z,12.97
2023-01-26T19:36:18.217Z,12.43
2023-01-26T19:38:45.159Z,12.90
2023-01-26T19:41:12.400Z,12.27
2023-01-26T19:43:39.440Z,12.50
2023-01-26T19:46:08.395Z,12.73
2023-01-26T19:48:35.290Z,12.93
2023-01-26T19:51:05.371Z,14.00
2023-01-26T19:53:34.500Z,13.53
2023-01-26T19:56:10.459Z,14.30
2023-01-26T19:58:37.525Z,14.10
2023-01-26T20:01:09.886Z,14.77
2023-01-26T20:03:37.052Z,15.87
2023-01-26T20:06:04.953Z,15.33
2023-01-26T20:08:32.389Z,15.40
2023-01-26T20:11:06.133Z,15.60
2023-01-26T20:13:34.294Z,14.93
2023-01-26T20:16:02.050Z,16.33
2023-01-26T20:18:28.846Z,14.60
2023-01-26T20:20:56.481Z,15.43
2023-01-26T20:23:24.576Z,14.67
2023-01-26T20:25:51.763Z,15.00
2023-01-26T20:28:19.087Z,17.30
2023-01-26T20:30:45.891Z,15.73
2023-01-26T20:33:12.826Z,16.07
2023-01-26T20:35:40.751Z,16.73
2023-01-26T20:38:07.493Z,15.10
2023-01-26T20:40:34.221Z,14.57
2023-01-26T20:43:02.496Z,13.43
2023-01-26T20:45:29.665Z,14.37
2023-01-26T20:47:56.481Z,15.27
2023-01-26T20:50:23.192Z,14.53
2023-01-26T20:52:49.944Z,14.90
2023-01-26T20:55:16.899Z,17.38
2023-01-26T20:57:43.683Z,14.77
2023-01-26T21:00:11.591Z,15.47
2023-01-26T21:02:38.552Z,15.70
2023-01-26T21:05:07.193Z,15.37
2023-01-26T21:07:33.968Z,13.40
2023-01-26T21:10:00.692Z,14.50
2023-01-26T21:12:28.103Z,13.83
2023-01-26T21:14:54.790Z,14.90
2023-01-26T21:17:22.797Z,15.07
2023-01-26T21:19:49.935Z,17.33
2023-01-26T21:22:16.807Z,17.63
2023-01-26T21:24:43.545Z,18.07
2023-01-26T21:27:10.299Z,15.90
2023-01-26T21:29:40.288Z,15.30
2023-01-26T21:32:07.625Z,13.70
2023-01-26T21:34:34.666Z,13.90
2023-01-26T21:37:01.408Z,14.40
2023-01-26T21:39:28.221Z,13.83
2023-01-26T21:41:58.970Z,13.27
2023-01-26T21:44:28.215Z,14.00
2023-01-26T21:47:00.683Z,17.10
2023-01-26T21:49:30.850Z,14.90
2023-01-26T21:52:16.729Z,13.63
2023-01-26T21:54:43.501Z,13.27
2023-01-26T21:57:29.975Z,12.00
2023-01-26T21:59:56.845Z,12.07
2023-01-26T22:02:24.008Z,11.87
2023-01-26T22:04:50.912Z,11.90
2023-01-26T22:07:17.596Z,13.40
2023-01-26T22:09:44.370Z,12.07
2023-01-26T22:12:11.116Z,13.57
2023-01-26T22:14:37.823Z,13.67
2023-01-26T22:17:05.210Z,13.83
2023-01-26T22:19:31.924Z,14.40
2023-01-26T22:21:58.708Z,15.53
2023-01-26T22:24:25.537Z,14.73
2023-01-26T22:26:52.327Z,14.23
2023-01-26T22:29:19.085Z,13.83
2023-01-26T22:31:45.883Z,12.27
2023-01-26T22:34:12.765Z,13.37
2023-01-26T22:36:40.275Z,12.23
2023-01-26T22:39:07.877Z,13.70
2023-01-26T22:41:35.954Z,15.10
2023-01-26T22:44:02.823Z,12.37
2023-01-26T22:46:30.702Z,14.77
2023-01-26T22:48:59.058Z,14.63
2023-01-26T22:51:31.454Z,14.73
2023-01-26T22:53:59.358Z,15.97
2023-01-26T22:56:27.014Z,16.43
2023-01-26T22:58:58.525Z,16.13
2023-01-26T23:01:28.592Z,15.33
2023-01-26T23:03:56.522Z,17.50
2023-01-26T23:06:24.176Z,18.33
2023-01-26T23:08:50.954Z,16.40
2023-01-26T23:11:25.570Z,17.17
2023-01-26T23:13:54.333Z,17.13
2023-01-26T23:16:23.490Z,18.60
2023-01-26T23:18:55.263Z,18.17
2023-01-26T23:21:22.542Z,16.77
2023-01-26T23:23:49.434Z,19.03
2023-01-26T23:26:16.610Z,18.00
2023-01-26T23:28:44.156Z,17.20
2023-01-26T23:31:13.159Z,16.97
2023-01-26T23:33:40.588Z,15.80
2023-01-26T23:36:08.586Z,16.50
2023-01-26T23:38:35.591Z,16.80
2023-01-26T23:41:02.854Z,17.17
2023-01-26T23:43:29.585Z,16.93
2023-01-26T23:45:56.879Z,16.20
2023-01-26T23:48:24.404Z,17.73
2023-01-26T23:51:05.420Z,15.40
2023-01-26T23:53:32.962Z,17.30
2023-01-26T23:56:03.421Z,16.57
2023-01-26T23:58:30.123Z,16.43
